sensor_id;sensor_type;location;lat;lon;timestamp;pressure;altitude;pressure_sealevel;temperature;humidity
7614;BME280;3848;42.016;23.098;2024-03-02T00:00:19;96508.16;;;10.07;100.00
7614;BME280;3848;42.016;23.098;2024-03-02T00:02:48;96506.47;;;10.06;100.00
7614;BME280;3848;42.016;23.098;2024-03-02T00:05:18;96509.00;;;10.07;100.00
7614;BME280;3848;42.016;23.098;2024-03-02T00:07:47;96506.44;;;10.07;100.00
7614;BME280;3848;42.016;23.098;2024-03-02T00:10:20;96510.81;;;10.01;100.00
7614;BME280;3848;42.016;23.098;2024-03-02T00:12:49;96506.59;;;9.97;100.00
7614;BME280;3848;42.016;23.098;2024-03-02T00:15:36;96508.41;;;9.90;100.00
7614;BME280;3848;42.016;23.098;2024-03-02T00:18:06;96519.50;;;9.85;100.00
7614;BME280;3848;42.016;23.098;2024-03-02T00:20:35;96521.28;;;9.76;100.00
7614;BME280;3848;42.016;23.098;2024-03-02T00:23:04;96520.53;;;9.71;100.00
7614;BME280;3848;42.016;23.098;2024-03-02T00:25:37;96522.25;;;9.69;100.00
7614;BME280;3848;42.016;23.098;2024-03-02T00:28:05;96533.28;;;9.68;100.00
7614;BME280;3848;42.016;23.098;2024-03-02T00:30:54;96525.72;;;9.64;100.00
7614;BME280;3848;42.016;23.098;2024-03-02T00:33:22;96525.75;;;9.62;100.00
7614;BME280;3848;42.016;23.098;2024-03-02T00:35:52;96528.25;;;9.64;100.00
7614;BME280;3848;42.016;23.098;2024-03-02T00:38:18;96517.28;;;9.63;100.00
7614;BME280;3848;42.016;23.098;2024-03-02T00:40:46;96521.41;;;9.70;100.00
7614;BME280;3848;42.016;23.098;2024-03-02T00:43:44;96526.41;;;9.73;100.00
7614;BME280;3848;42.016;23.098;2024-03-02T00:46:12;96514.69;;;9.66;100.00
7614;BME280;3848;42.016;23.098;2024-03-02T00:48:48;96518.88;;;9.69;100.00
7614;BME280;3848;42.016;23.098;2024-03-02T00:51:20;96509.63;;;9.66;100.00
7614;BME280;3848;42.016;23.098;2024-03-02T00:53:47;96502.97;;;9.59;100.00
7614;BME280;3848;42.016;23.098;2024-03-02T00:56:14;96500.28;;;9.68;100.00
7614;BME280;3848;42.016;23.098;2024-03-02T00:58:41;96497.63;;;9.76;100.00
7614;BME280;3848;42.016;23.098;2024-03-02T01:01:08;96489.19;;;9.75;100.00
7614;BME280;3848;42.016;23.098;2024-03-02T01:03:36;96484.94;;;9.76;100.00
7614;BME280;3848;42.016;23.098;2024-03-02T01:06:04;96495.91;;;9.80;100.00
7614;BME280;3848;42.016;23.098;2024-03-02T01:08:34;96489.78;;;9.91;100.00
7614;BME280;3848;42.016;23.098;2024-03-02T01:11:01;96475.47;;;9.89;100.00
7614;BME280;3848;42.016;23.098;2024-03-02T01:13:29;96466.31;;;9.80;100.00
7614;BME280;3848;42.016;23.098;2024-03-02T01:15:56;96478.69;;;9.97;100.00
7614;BME280;3848;42.016;23.098;2024-03-02T01:18:24;96475.28;;;9.98;100.00
7614;BME280;3848;42.016;23.098;2024-03-02T01:20:51;96477.03;;;9.94;100.00
7614;BME280;3848;42.016;23.098;2024-03-02T01:23:20;96481.28;;;9.94;100.00
7614;BME280;3848;42.016;23.098;2024-03-02T01:25:49;96456.16;;;9.78;100.00
7614;BME280;3848;42.016;23.098;2024-03-02T01:28:16;96464.47;;;9.88;100.00
7614;BME280;3848;42.016;23.098;2024-03-02T01:30:44;96467.84;;;9.89;100.00
7614;BME280;3848;42.016;23.098;2024-03-02T01:33:11;96468.66;;;9.91;100.00
7614;BME280;3848;42.016;23.098;2024-03-02T01:35:38;96466.94;;;9.91;100.00
7614;BME280;3848;42.016;23.098;2024-03-02T01:38:05;96465.22;;;9.93;100.00
7614;BME280;3848;42.016;23.098;2024-03-02T01:40:33;96456.78;;;9.93;100.00
7614;BME280;3848;42.016;23.098;2024-03-02T01:43:03;96455.13;;;9.90;100.00
7614;BME280;3848;42.016;23.098;2024-03-02T01:45:30;96454.25;;;9.91;100.00
7614;BME280;3848;42.016;23.098;2024-03-02T01:47:57;96432.47;;;9.81;100.00
7614;BME280;3848;42.016;23.098;2024-03-02T01:50:27;96455.88;;;9.95;100.00
7614;BME280;3848;42.016;23.098;2024-03-02T01:52:55;96448.28;;;9.94;100.00
7614;BME280;3848;42.016;23.098;2024-03-02T01:55:23;96457.50;;;9.99;100.00
7614;BME280;3848;42.016;23.098;2024-03-02T01:57:50;96451.81;;;9.87;100.00
7614;BME280;3848;42.016;23.098;2024-03-02T02:00:19;96455.16;;;9.89;100.00
7614;BME280;3848;42.016;23.098;2024-03-02T02:02:47;96463.56;;;9.92;100.00
7614;BME280;3848;42.016;23.098;2024-03-02T02:05:14;96464.34;;;9.94;100.00
7614;BME280;3848;42.016;23.098;2024-03-02T02:07:41;96472.09;;;9.87;100.00
7614;BME280;3848;42.016;23.098;2024-03-02T02:10:09;96478.22;;;9.73;100.00
7614;BME280;3848;42.016;23.098;2024-03-02T02:12:36;96470.88;;;9.58;100.00
7614;BME280;3848;42.016;23.098;2024-03-02T02:15:04;96475.13;;;9.55;100.00
7614;BME280;3848;42.016;23.098;2024-03-02T02:17:49;96478.44;;;9.60;100.00
7614;BME280;3848;42.016;23.098;2024-03-02T02:20:16;96475.06;;;9.61;100.00
7614;BME280;3848;42.016;23.098;2024-03-02T02:23:00;96481.78;;;9.63;100.00
7614;BME280;3848;42.016;23.098;2024-03-02T02:25:28;96471.78;;;9.51;100.00
7614;BME280;3848;42.016;23.098;2024-03-02T02:27:55;96429.16;;;9.21;100.00
7614;BME280;3848;42.016;23.098;2024-03-02T02:30:24;96476.06;;;9.49;100.00
7614;BME280;3848;42.016;23.098;2024-03-02T02:32:52;96463.56;;;9.35;100.00
7614;BME280;3848;42.016;23.098;2024-03-02T02:35:19;96480.41;;;9.41;100.00
7614;BME280;3848;42.016;23.098;2024-03-02T02:37:47;96476.22;;;9.38;100.00
7614;BME280;3848;42.016;23.098;2024-03-02T02:40:16;96469.47;;;9.36;100.00
7614;BME280;3848;42.016;23.098;2024-03-02T02:42:44;96469.47;;;9.39;100.00
7614;BME280;3848;42.016;23.098;2024-03-02T02:45:11;96462.72;;;9.38;100.00
7614;BME280;3848;42.016;23.098;2024-03-02T02:47:40;96475.38;;;9.36;100.00
7614;BME280;3848;42.016;23.098;2024-03-02T02:50:08;96477.88;;;9.41;100.00
7614;BME280;3848;42.016;23.098;2024-03-02T02:52:36;96405.72;;;9.03;100.00
7614;BME280;3848;42.016;23.098;2024-03-02T02:55:06;96476.94;;;9.46;100.00
7614;BME280;3848;42.016;23.098;2024-03-02T02:57:35;96470.16;;;9.47;100.00
7614;BME280;3848;42.016;23.098;2024-03-02T03:00:06;96463.44;;;9.44;100.00
7614;BME280;3848;42.016;23.098;2024-03-02T03:02:36;96463.38;;;9.49;100.00
7614;BME280;3848;42.016;23.098;2024-03-02T03:05:04;96455.72;;;9.52;100.00
7614;BME280;3848;42.016;23.098;2024-03-02T03:07:32;96461.56;;;9.59;100.00
7614;BME280;3848;42.016;23.098;2024-03-02T03:09:59;96461.53;;;9.60;100.00
7614;BME280;3848;42.016;23.098;2024-03-02T03:12:26;96472.44;;;9.65;100.00
7614;BME280;3848;42.016;23.098;2024-03-02T03:14:54;96464.03;;;9.63;100.00
7614;BME280;3848;42.016;23.098;2024-03-02T03:17:21;96459.78;;;9.64;100.00
7614;BME280;3848;42.016;23.098;2024-03-02T03:19:49;96461.47;;;9.65;100.00
7614;BME280;3848;42.016;23.098;2024-03-02T03:22:16;96460.75;;;9.55;100.00
7614;BME280;3848;42.016;23.098;2024-03-02T03:24:43;96470.16;;;9.48;100.00
7614;BME280;3848;42.016;23.098;2024-03-02T03:27:10;96450.97;;;9.31;100.00
7614;BME280;3848;42.016;23.098;2024-03-02T03:29:37;96457.59;;;9.41;100.00
7614;BME280;3848;42.016;23.098;2024-03-02T03:32:06;96457.69;;;9.32;100.00
7614;BME280;3848;42.016;23.098;2024-03-02T03:34:34;96446.84;;;9.24;100.00
7614;BME280;3848;42.016;23.098;2024-03-02T03:37:01;96463.59;;;9.32;100.00
7614;BME280;3848;42.016;23.098;2024-03-02T03:39:28;96461.88;;;9.36;100.00
7614;BME280;3848;42.016;23.098;2024-03-02T03:41:55;96465.41;;;9.26;100.00
7614;BME280;3848;42.016;23.098;2024-03-02T03:44:22;96468.81;;;9.23;100.00
7614;BME280;3848;42.016;23.098;2024-03-02T03:46:49;96466.25;;;9.25;100.00
7614;BME280;3848;42.016;23.098;2024-03-02T03:49:18;96466.22;;;9.28;100.00
7614;BME280;3848;42.016;23.098;2024-03-02T03:51:45;96469.53;;;9.33;100.00
7614;BME280;3848;42.016;23.098;2024-03-02T03:54:12;96466.13;;;9.34;100.00
7614;BME280;3848;42.016;23.098;2024-03-02T03:56:39;96467.03;;;9.30;100.00
7614;BME280;3848;42.016;23.098;2024-03-02T03:59:06;96455.28;;;9.24;100.00
7614;BME280;3848;42.016;23.098;2024-03-02T04:01:33;96459.56;;;9.21;100.00
7614;BME280;3848;42.016;23.098;2024-03-02T04:04:00;96449.47;;;9.18;100.00
7614;BME280;3848;42.016;23.098;2024-03-02T04:06:30;96445.28;;;9.13;100.00
7614;BME280;3848;42.016;23.098;2024-03-02T04:08:57;96457.78;;;9.26;100.00
7614;BME280;3848;42.016;23.098;2024-03-02T04:11:24;96462.91;;;9.24;100.00
7614;BME280;3848;42.016;23.098;2024-03-02T04:13:51;96441.00;;;9.19;100.00
7614;BME280;3848;42.016;23.098;2024-03-02T04:16:18;96464.59;;;9.24;100.00
7614;BME280;3848;42.016;23.098;2024-03-02T04:18:45;96463.78;;;9.22;100.00
7614;BME280;3848;42.016;23.098;2024-03-02T04:21:12;96465.53;;;9.16;100.00
7614;BME280;3848;42.016;23.098;2024-03-02T04:23:41;96467.22;;;9.14;100.00
7614;BME280;3848;42.016;23.098;2024-03-02T04:26:07;96472.28;;;9.16;100.00
7614;BME280;3848;42.016;23.098;2024-03-02T04:28:34;96470.66;;;9.12;100.00
7614;BME280;3848;42.016;23.098;2024-03-02T04:31:02;96472.34;;;9.11;100.00
7614;BME280;3848;42.016;23.098;2024-03-02T04:33:29;96483.34;;;9.10;100.00
7614;BME280;3848;42.016;23.098;2024-03-02T04:35:56;96466.50;;;9.06;100.00
7614;BME280;3848;42.016;23.098;2024-03-02T04:38:23;96480.78;;;9.12;100.00
7614;BME280;3848;42.016;23.098;2024-03-02T04:40:51;96479.09;;;9.11;100.00
7614;BME280;3848;42.016;23.098;2024-03-02T04:43:18;96422.13;;;8.76;100.00
7614;BME280;3848;42.016;23.098;2024-03-02T04:45:45;96475.69;;;9.13;100.00
7614;BME280;3848;42.016;23.098;2024-03-02T04:48:12;96473.97;;;9.17;100.00
7614;BME280;3848;42.016;23.098;2024-03-02T04:50:40;96475.59;;;9.23;100.00
7614;BME280;3848;42.016;23.098;2024-03-02T04:53:07;96480.63;;;9.26;100.00
7614;BME280;3848;42.016;23.098;2024-03-02T04:55:34;96482.25;;;9.30;100.00
7614;BME280;3848;42.016;23.098;2024-03-02T04:58:40;96490.63;;;9.33;100.00
7614;BME280;3848;42.016;23.098;2024-03-02T05:01:07;96482.16;;;9.34;100.00
7614;BME280;3848;42.016;23.098;2024-03-02T05:03:34;96484.66;;;9.39;100.00
7614;BME280;3848;42.016;23.098;2024-03-02T05:06:01;96464.56;;;9.25;100.00
7614;BME280;3848;42.016;23.098;2024-03-02T05:08:28;96491.44;;;9.38;100.00
7614;BME280;3848;42.016;23.098;2024-03-02T05:10:55;96485.50;;;9.39;100.00
7614;BME280;3848;42.016;23.098;2024-03-02T05:13:43;96489.75;;;9.36;100.00
7614;BME280;3848;42.016;23.098;2024-03-02T05:16:09;96491.38;;;9.41;100.00
7614;BME280;3848;42.016;23.098;2024-03-02T05:18:37;96482.97;;;9.39;100.00
7614;BME280;3848;42.016;23.098;2024-03-02T05:21:04;96491.38;;;9.41;100.00
7614;BME280;3848;42.016;23.098;2024-03-02T05:23:31;96492.28;;;9.39;100.00
7614;BME280;3848;42.016;23.098;2024-03-02T05:25:58;96493.09;;;9.41;100.00
7614;BME280;3848;42.016;23.098;2024-03-02T05:28:25;96474.63;;;9.30;100.00
7614;BME280;3848;42.016;23.098;2024-03-02T05:30:54;96493.09;;;9.39;100.00
7614;BME280;3848;42.016;23.098;2024-03-02T05:33:21;96499.84;;;9.42;100.00
7614;BME280;3848;42.016;23.098;2024-03-02T05:35:49;96493.94;;;9.40;100.00
7614;BME280;3848;42.016;23.098;2024-03-02T05:38:16;96502.28;;;9.46;100.00
7614;BME280;3848;42.016;23.098;2024-03-02T05:40:43;96487.97;;;9.44;100.00
7614;BME280;3848;42.016;23.098;2024-03-02T05:43:10;96498.84;;;9.52;100.00
7614;BME280;3848;42.016;23.098;2024-03-02T05:45:37;96504.72;;;9.54;100.00
7614;BME280;3848;42.016;23.098;2024-03-02T05:48:07;96505.50;;;9.58;100.00
7614;BME280;3848;42.016;23.098;2024-03-02T05:50:34;96503.81;;;9.60;100.00
7614;BME280;3848;42.016;23.098;2024-03-02T05:53:01;96498.84;;;9.52;100.00
7614;BME280;3848;42.016;23.098;2024-03-02T05:55:28;96511.34;;;9.64;100.00
7614;BME280;3848;42.016;23.098;2024-03-02T05:57:55;96509.63;;;9.66;100.00
7614;BME280;3848;42.016;23.098;2024-03-02T06:00:37;96509.56;;;9.69;100.00
7614;BME280;3848;42.016;23.098;2024-03-02T06:03:05;96520.56;;;9.70;100.00
7614;BME280;3848;42.016;23.098;2024-03-02T06:05:34;96512.94;;;9.71;100.00
7614;BME280;3848;42.016;23.098;2024-03-02T06:08:02;96521.38;;;9.72;100.00
7614;BME280;3848;42.016;23.098;2024-03-02T06:10:29;96523.13;;;9.68;100.00
7614;BME280;3848;42.016;23.098;2024-03-02T06:15:41;96525.69;;;9.67;100.00
7614;BME280;3848;42.016;23.098;2024-03-02T06:18:10;96525.66;;;9.68;100.00
7614;BME280;3848;42.016;23.098;2024-03-02T06:20:37;96530.66;;;9.73;100.00
7614;BME280;3848;42.016;23.098;2024-03-02T06:23:04;96529.81;;;9.72;100.00
7614;BME280;3848;42.016;23.098;2024-03-02T06:25:31;96531.59;;;9.67;100.00
7614;BME280;3848;42.016;23.098;2024-03-02T06:27:59;96531.63;;;9.64;100.00
7614;BME280;3848;42.016;23.098;2024-03-02T06:30:26;96531.59;;;9.67;100.00
7614;BME280;3848;42.016;23.098;2024-03-02T06:32:53;96512.31;;;9.56;100.00
7614;BME280;3848;42.016;23.098;2024-03-02T06:35:21;96534.84;;;9.75;100.00
7614;BME280;3848;42.016;23.098;2024-03-02T06:37:48;96538.25;;;9.73;100.00
7614;BME280;3848;42.016;23.098;2024-03-02T06:40:16;96526.38;;;9.76;100.00
7614;BME280;3848;42.016;23.098;2024-03-02T06:42:43;96534.78;;;9.82;100.00
7614;BME280;3848;42.016;23.098;2024-03-02T06:45:10;96495.38;;;9.59;100.00
7614;BME280;3848;42.016;23.098;2024-03-02T06:47:37;96540.63;;;9.85;100.00
7614;BME280;3848;42.016;23.098;2024-03-02T06:50:05;96540.63;;;9.87;100.00
7614;BME280;3848;42.016;23.098;2024-03-02T06:52:34;96498.63;;;9.66;100.00
7614;BME280;3848;42.016;23.098;2024-03-02T06:55:01;96544.69;;;9.97;100.00
7614;BME280;3848;42.016;23.098;2024-03-02T06:57:28;96555.75;;;9.93;100.00
7614;BME280;3848;42.016;23.098;2024-03-02T06:59:54;96549.00;;;9.90;100.00
7614;BME280;3848;42.016;23.098;2024-03-02T07:02:24;96548.25;;;9.85;100.00
7614;BME280;3848;42.016;23.098;2024-03-02T07:04:52;96546.66;;;9.80;100.00
7614;BME280;3848;42.016;23.098;2024-03-02T07:07:19;96554.97;;;9.88;100.00
7614;BME280;3848;42.016;23.098;2024-03-02T07:09:47;96549.00;;;9.90;100.00
7614;BME280;3848;42.016;23.098;2024-03-02T07:12:13;96548.06;;;9.97;100.00
7614;BME280;3848;42.016;23.098;2024-03-02T07:14:40;96543.78;;;10.01;100.00
7614;BME280;3848;42.016;23.098;2024-03-02T07:17:25;96549.56;;;10.09;100.00
7614;BME280;3848;42.016;23.098;2024-03-02T07:19:52;96552.06;;;10.12;100.00
7614;BME280;3848;42.016;23.098;2024-03-02T07:22:19;96556.22;;;10.16;100.00
7614;BME280;3848;42.016;23.098;2024-03-02T07:24:48;96547.75;;;10.17;100.00
7614;BME280;3848;42.016;23.098;2024-03-02T07:27:15;96540.97;;;10.18;100.00
7614;BME280;3848;42.016;23.098;2024-03-02T07:29:43;96541.00;;;10.16;100.00
7614;BME280;3848;42.016;23.098;2024-03-02T07:32:10;96556.91;;;10.29;100.00
7614;BME280;3848;42.016;23.098;2024-03-02T07:34:37;96559.41;;;10.32;100.00
7614;BME280;3848;42.016;23.098;2024-03-02T07:37:04;96560.13;;;10.38;100.00
7614;BME280;3848;42.016;23.098;2024-03-02T07:39:31;96560.94;;;10.41;100.00
7614;BME280;3848;42.016;23.098;2024-03-02T07:42:00;96557.44;;;10.48;100.00
7614;BME280;3848;42.016;23.098;2024-03-02T07:44:27;96557.34;;;10.54;100.00
7614;BME280;3848;42.016;23.098;2024-03-02T07:46:54;96567.34;;;10.63;100.00
7614;BME280;3848;42.016;23.098;2024-03-02T07:49:22;96566.44;;;10.67;100.00
7614;BME280;3848;42.016;23.098;2024-03-02T07:51:49;96569.06;;;10.61;100.00
7614;BME280;3848;42.016;23.098;2024-03-02T07:54:16;96564.88;;;10.58;100.00
7614;BME280;3848;42.016;23.098;2024-03-02T07:56:43;96578.22;;;10.71;100.00
7614;BME280;3848;42.016;23.098;2024-03-02T07:59:11;96572.13;;;10.78;100.00
7614;BME280;3848;42.016;23.098;2024-03-02T08:01:38;96570.25;;;10.89;100.00
7614;BME280;3848;42.016;23.098;2024-03-02T08:04:05;96574.28;;;10.99;100.00
7614;BME280;3848;42.016;23.098;2024-03-02T08:06:33;96575.94;;;11.02;100.00
7614;BME280;3848;42.016;23.098;2024-03-02T08:09:01;96578.22;;;11.16;100.00
7614;BME280;3848;42.016;23.098;2024-03-02T08:11:30;96586.50;;;11.27;100.00
7614;BME280;3848;42.016;23.098;2024-03-02T08:13:57;96580.59;;;11.25;100.00
7614;BME280;3848;42.016;23.098;2024-03-02T08:16:26;96579.63;;;11.30;100.00
7614;BME280;3848;42.016;23.098;2024-03-02T08:18:53;96587.81;;;11.46;100.00
7614;BME280;3848;42.016;23.098;2024-03-02T08:21:23;96579.34;;;11.46;100.00
7614;BME280;3848;42.016;23.098;2024-03-02T08:23:50;96589.47;;;11.47;100.00
7614;BME280;3848;42.016;23.098;2024-03-02T08:26:17;96596.31;;;11.45;100.00
7614;BME280;3848;42.016;23.098;2024-03-02T08:28:44;96586.19;;;11.41;100.00
7614;BME280;3848;42.016;23.098;2024-03-02T08:31:11;96598.88;;;11.42;100.00
7614;BME280;3848;42.016;23.098;2024-03-02T08:33:40;96557.16;;;11.11;100.00
7614;BME280;3848;42.016;23.098;2024-03-02T08:36:07;96602.47;;;11.34;100.00
7614;BME280;3848;42.016;23.098;2024-03-02T08:38:35;96595.81;;;11.28;100.00
7614;BME280;3848;42.016;23.098;2024-03-02T08:41:03;96596.53;;;11.33;100.00
7614;BME280;3848;42.016;23.098;2024-03-02T08:43:30;96601.53;;;11.38;100.00
7614;BME280;3848;42.016;23.098;2024-03-02T08:45:57;96596.22;;;11.50;100.00
7614;BME280;3848;42.016;23.098;2024-03-02T08:48:24;96601.06;;;11.60;100.00
7614;BME280;3848;42.016;23.098;2024-03-02T08:50:53;96598.44;;;11.64;100.00
7614;BME280;3848;42.016;23.098;2024-03-02T08:53:20;96604.31;;;11.69;100.00
7614;BME280;3848;42.016;23.098;2024-03-02T08:55:47;96604.22;;;11.72;100.00
7614;BME280;3848;42.016;23.098;2024-03-02T08:58:14;96609.03;;;11.87;100.00
7614;BME280;3848;42.016;23.098;2024-03-02T09:00:41;96597.59;;;12.05;100.00
7614;BME280;3848;42.016;23.098;2024-03-02T09:03:08;96589.75;;;12.14;100.00
7614;BME280;3848;42.016;23.098;2024-03-02T09:05:36;96619.97;;;12.29;100.00
7614;BME280;3848;42.016;23.098;2024-03-02T09:08:05;96612.38;;;12.26;100.00
7614;BME280;3848;42.016;23.098;2024-03-02T09:10:32;96621.53;;;12.35;100.00
7614;BME280;3848;42.016;23.098;2024-03-02T09:13:00;96621.28;;;12.45;100.00
7614;BME280;3848;42.016;23.098;2024-03-02T09:15:27;96621.75;;;12.61;100.00
7614;BME280;3848;42.016;23.098;2024-03-02T09:17:54;96624.09;;;12.70;100.00
7614;BME280;3848;42.016;23.098;2024-03-02T09:20:22;96612.81;;;12.79;100.00
7614;BME280;3848;42.016;23.098;2024-03-02T09:22:49;96612.25;;;13.00;100.00
7614;BME280;3848;42.016;23.098;2024-03-02T09:25:17;96600.38;;;12.99;100.00
7614;BME280;3848;42.016;23.098;2024-03-02T09:27:44;96616.00;;;13.21;100.00
7614;BME280;3848;42.016;23.098;2024-03-02T09:30:12;96615.69;;;13.33;100.00
7614;BME280;3848;42.016;23.098;2024-03-02T09:32:39;96611.66;;;13.56;100.00
7614;BME280;3848;42.016;23.098;2024-03-02T09:35:07;96586.00;;;13.29;100.00
7614;BME280;3848;42.016;23.098;2024-03-02T09:37:34;96616.38;;;13.38;100.00
7614;BME280;3848;42.016;23.098;2024-03-02T09:40:01;96597.81;;;13.33;100.00
7614;BME280;3848;42.016;23.098;2024-03-02T09:42:30;96580.22;;;13.23;100.00
7614;BME280;3848;42.016;23.098;2024-03-02T09:44:58;96601.13;;;13.37;100.00
7614;BME280;3848;42.016;23.098;2024-03-02T09:47:25;96595.16;;;13.36;100.00
7614;BME280;3848;42.016;23.098;2024-03-02T09:49:52;96603.19;;;13.54;100.00
7614;BME280;3848;42.016;23.098;2024-03-02T09:52:22;96588.84;;;13.79;100.00
7614;BME280;3848;42.016;23.098;2024-03-02T09:54:49;96599.78;;;14.11;100.00
7614;BME280;3848;42.016;23.098;2024-03-02T09:57:16;96614.56;;;14.29;100.00
7614;BME280;3848;42.016;23.098;2024-03-02T09:59:44;96613.69;;;14.30;100.00
7614;BME280;3848;42.016;23.098;2024-03-02T10:02:12;96609.34;;;14.32;100.00
7614;BME280;3848;42.016;23.098;2024-03-02T10:04:39;96607.59;;;14.34;100.00
7614;BME280;3848;42.016;23.098;2024-03-02T10:07:13;96612.88;;;14.28;100.00
7614;BME280;3848;42.016;23.098;2024-03-02T10:09:41;96608.53;;;14.31;100.00
7614;BME280;3848;42.016;23.098;2024-03-02T10:12:09;96612.00;;;14.29;100.00
7614;BME280;3848;42.016;23.098;2024-03-02T10:14:37;96603.03;;;14.16;100.00
7614;BME280;3848;42.016;23.098;2024-03-02T10:17:06;96595.25;;;13.92;100.00
7614;BME280;3848;42.016;23.098;2024-03-02T10:19:34;96606.34;;;13.91;100.00
7614;BME280;3848;42.016;23.098;2024-03-02T10:22:03;96605.78;;;13.82;100.00
7614;BME280;3848;42.016;23.098;2024-03-02T10:24:41;96600.81;;;13.77;100.00
7614;BME280;3848;42.016;23.098;2024-03-02T10:27:15;96564.94;;;13.52;100.00
7614;BME280;3848;42.016;23.098;2024-03-02T10:29:45;96592.38;;;13.73;100.00
7614;BME280;3848;42.016;23.098;2024-03-02T10:32:14;96595.72;;;13.77;100.00
7614;BME280;3848;42.016;23.098;2024-03-02T10:34:42;96593.41;;;13.68;100.00
7614;BME280;3848;42.016;23.098;2024-03-02T10:37:10;96593.28;;;13.72;100.00
7614;BME280;3848;42.016;23.098;2024-03-02T10:39:39;96598.03;;;13.85;100.00
7614;BME280;3848;42.016;23.098;2024-03-02T10:42:06;96588.47;;;13.91;100.00
7614;BME280;3848;42.016;23.098;2024-03-02T10:44:33;96544.72;;;13.74;100.00
7614;BME280;3848;42.016;23.098;2024-03-02T10:47:01;96594.88;;;14.04;100.00
7614;BME280;3848;42.016;23.098;2024-03-02T10:49:31;96553.78;;;13.84;100.00
7614;BME280;3848;42.016;23.098;2024-03-02T10:51:59;96566.22;;;14.23;100.00
7614;BME280;3848;42.016;23.098;2024-03-02T10:54:26;96581.19;;;14.33;100.00
7614;BME280;3848;42.016;23.098;2024-03-02T10:56:56;96557.88;;;14.44;100.00
7614;BME280;3848;42.016;23.098;2024-03-02T10:59:28;96569.91;;;14.67;100.00
7614;BME280;3848;42.016;23.098;2024-03-02T11:01:57;96531.31;;;14.48;100.00
7614;BME280;3848;42.016;23.098;2024-03-02T11:04:26;96560.06;;;14.81;100.00
7614;BME280;3848;42.016;23.098;2024-03-02T11:06:59;96564.06;;;14.63;100.00
7614;BME280;3848;42.016;23.098;2024-03-02T11:09:28;96563.00;;;14.69;100.00
7614;BME280;3848;42.016;23.098;2024-03-02T11:12:03;96556.19;;;14.70;100.00
7614;BME280;3848;42.016;23.098;2024-03-02T11:14:31;96552.56;;;14.75;100.00
7614;BME280;3848;42.016;23.098;2024-03-02T11:17:02;96559.56;;;14.70;100.00
7614;BME280;3848;42.016;23.098;2024-03-02T11:19:31;96565.22;;;14.80;100.00
7614;BME280;3848;42.016;23.098;2024-03-02T11:22:02;96541.09;;;14.62;100.00
7614;BME280;3848;42.016;23.098;2024-03-02T11:24:31;96560.84;;;14.58;100.00
7614;BME280;3848;42.016;23.098;2024-03-02T11:27:03;96555.22;;;14.47;100.00
7614;BME280;3848;42.016;23.098;2024-03-02T11:29:46;96563.84;;;14.45;100.00
7614;BME280;3848;42.016;23.098;2024-03-02T11:32:21;96556.28;;;14.40;100.00
7614;BME280;3848;42.016;23.098;2024-03-02T11:34:50;96553.03;;;14.35;100.00
7614;BME280;3848;42.016;23.098;2024-03-02T11:37:19;96542.38;;;14.22;100.00
7614;BME280;3848;42.016;23.098;2024-03-02T11:39:48;96554.59;;;14.13;100.00
7614;BME280;3848;42.016;23.098;2024-03-02T11:42:16;96531.91;;;14.03;100.00
7614;BME280;3848;42.016;23.098;2024-03-02T11:44:45;96546.59;;;14.23;100.00
7614;BME280;3848;42.016;23.098;2024-03-02T11:47:14;96546.66;;;14.22;100.00
7614;BME280;3848;42.016;23.098;2024-03-02T11:49:42;96537.16;;;14.25;100.00
7614;BME280;3848;42.016;23.098;2024-03-02T11:52:11;96471.38;;;13.79;100.00
7614;BME280;3848;42.016;23.098;2024-03-02T11:54:41;96539.72;;;14.25;100.00
7614;BME280;3848;42.016;23.098;2024-03-02T11:57:12;96534.56;;;14.27;100.00
7614;BME280;3848;42.016;23.098;2024-03-02T11:59:40;96538.53;;;14.35;100.00
7614;BME280;3848;42.016;23.098;2024-03-02T12:02:14;96525.31;;;14.49;100.00
7614;BME280;3848;42.016;23.098;2024-03-02T12:04:42;96517.38;;;14.58;100.00
7614;BME280;3848;42.016;23.098;2024-03-02T12:07:10;96509.53;;;14.63;100.00
7614;BME280;3848;42.016;23.098;2024-03-02T12:09:37;96515.16;;;14.73;100.00
7614;BME280;3848;42.016;23.098;2024-03-02T12:12:07;96520.94;;;14.78;100.00
7614;BME280;3848;42.016;23.098;2024-03-02T12:14:35;96521.47;;;14.87;100.00
7614;BME280;3848;42.016;23.098;2024-03-02T12:17:03;96468.88;;;14.80;100.00
7614;BME280;3848;42.016;23.098;2024-03-02T12:19:31;96507.38;;;15.24;100.00
7614;BME280;3848;42.016;23.098;2024-03-02T12:21:59;96512.75;;;15.40;100.00
7614;BME280;3848;42.016;23.098;2024-03-02T12:24:27;96505.56;;;15.49;100.00
7614;BME280;3848;42.016;23.098;2024-03-02T12:26:54;96508.38;;;15.89;100.00
7614;BME280;3848;42.016;23.098;2024-03-02T12:29:23;96503.53;;;16.23;100.00
7614;BME280;3848;42.016;23.098;2024-03-02T12:31:51;96509.50;;;16.24;100.00
7614;BME280;3848;42.016;23.098;2024-03-02T12:34:19;96507.31;;;16.14;100.00
7614;BME280;3848;42.016;23.098;2024-03-02T12:36:46;96488.22;;;15.79;100.00
7614;BME280;3848;42.016;23.098;2024-03-02T12:39:18;96499.19;;;15.83;100.00
7614;BME280;3848;42.016;23.098;2024-03-02T12:41:46;96493.00;;;15.89;100.00
7614;BME280;3848;42.016;23.098;2024-03-02T12:44:16;96497.03;;;15.94;100.00
7614;BME280;3848;42.016;23.098;2024-03-02T12:46:44;96492.75;;;15.95;100.00
7614;BME280;3848;42.016;23.098;2024-03-02T12:49:13;96496.19;;;15.94;100.00
7614;BME280;3848;42.016;23.098;2024-03-02T12:51:42;96474.75;;;15.74;100.00
7614;BME280;3848;42.016;23.098;2024-03-02T12:54:10;96496.09;;;15.75;100.00
7614;BME280;3848;42.016;23.098;2024-03-02T12:56:37;96491.09;;;15.72;100.00
7614;BME280;3848;42.016;23.098;2024-03-02T12:59:05;96481.63;;;15.50;100.00
7614;BME280;3848;42.016;23.098;2024-03-02T13:01:32;96484.69;;;15.37;100.00
7614;BME280;3848;42.016;23.098;2024-03-02T13:04:00;96502.91;;;15.29;100.00
7614;BME280;3848;42.016;23.098;2024-03-02T13:06:27;96500.84;;;15.15;100.00
7614;BME280;3848;42.016;23.098;2024-03-02T13:08:54;96498.28;;;15.15;100.00
7614;BME280;3848;42.016;23.098;2024-03-02T13:11:22;96500.72;;;15.18;100.00
7614;BME280;3848;42.016;23.098;2024-03-02T13:13:50;96502.91;;;15.06;100.00